• Join FlightAware (Why Join?)
  • Login
  • US Flag 
11:07PM EST


 

Airport Tracker/Info


-or-


 

Live Flight TrackerFlight Track Log ✈ RPA1631 ✈ 28-Apr-2013 ✈ KMSN - KDEN

Flight Track Log - Related Links

Times and Time Zones

All times are in EDT time to prevent confusion due to time zone crossing. See the RPA1631 flight status page for this flight to view local times or setup timezone preferences in your user account.

Time Position Orientation Groundspeed Altitude Reporting Facility
EDT Latitude Longitude Course Direction KTS MPH feet Rate Location/Type
09:05AM 43.1742 -89.3656 270° West 155 178 2,800  Level Chicago Center
09:06AM 43.1719 -89.4500 268° West 222 255 4,500 2,580 Climbing Chicago Center
09:07AM 43.1725 -89.5581 270° West 272 313 8,100 3,120 Climbing Chicago Center
09:08AM 43.1708 -89.6669 269° West 284 327 10,900 2,580 Climbing Chicago Center
09:09AM 43.1697 -89.8219 269° West 348 400 13,500 2,520 Climbing Chicago Center
09:10AM 43.1333 -90.2056 270° West  Level FlightAware Approximate
09:10AM 43.1683 -89.9569 269° West 354 407 16,100  Level Chicago Center
09:11AM 43.1675 -90.1006 270° West 373 429 18,800 2,460 Climbing Chicago Center
09:12AM 43.1669 -90.2442 270° West 376 433 21,300 2,040 Climbing Chicago Center
09:13AM 43.1644 -90.3833 269° West 382 440 23,100 1,620 Climbing Chicago Center
09:14AM 43.1628 -90.5344 269° West 398 458 24,700 1,680 Climbing Chicago Center
09:15AM 43.1603 -90.6900 269° West 410 472 26,500 1,620 Climbing Minneapolis Center
09:16AM 43.1586 -90.8467 269° West 415 478 27,900 1,320 Climbing Minneapolis Center
09:17AM 43.1567 -91.0064 269° West 422 486 29,300 1,620 Climbing Minneapolis Center
09:18AM 43.1547 -91.1647 269° West 422 486 31,300 1,860 Climbing Minneapolis Center
09:19AM 43.1508 -91.3500 268° West 413 475 33,100 1,320 Climbing Minneapolis Center
09:20AM 43.1478 -91.5033 268° West 411 473 34,000 420 Climbing Minneapolis Center
09:21AM 43.1444 -91.6617 268° West 419 482 34,000  Level Minneapolis Center
09:22AM 43.1394 -91.8208 268° West 426 490 34,000  Level Minneapolis Center
09:23AM 43.1361 -91.9775 268° West 423 487 34,000  Level Minneapolis Center
09:24AM 43.1317 -92.1328 268° West 416 479 34,000  Level Minneapolis Center
09:25AM 43.1283 -92.2903 268° West 418 481 34,000  Level Minneapolis Center
09:26AM 43.1225 -92.4828 268° West 426 490 34,000  Level Minneapolis Center
09:27AM 43.1178 -92.6422 268° West 425 489 34,000  Level Minneapolis Center
09:28AM 43.1125 -92.8006 267° West 423 487 34,000  Level Minneapolis Center
09:29AM 43.1078 -92.9600 268° West 423 487 34,000  Level Minneapolis Center
09:30AM 43.1033 -93.0869 267° West 422 486 34,000  Level Minneapolis Center
09:31AM 43.0939 -93.2783 266° West 423 487 34,000  Level Minneapolis Center
09:32AM 43.0836 -93.4400 265° West 427 491 34,000  Level Minneapolis Center
09:33AM 43.0653 -93.6319 263° West 427 491 34,000  Level Minneapolis Center
09:34AM 43.0467 -93.8225 262° West 426 490 34,000  Level Minneapolis Center
09:35AM 43.0336 -93.9819 264° West 427 491 34,000  Level Minneapolis Center
09:36AM 43.0167 -94.1433 262° West 430 495 34,000  Level Minneapolis Center
09:37AM 43.0031 -94.2989 263° West 424 488 34,000  Level Minneapolis Center
09:38AM 42.9864 -94.4581 262° West 426 490 34,000  Level Minneapolis Center
09:39AM 42.9681 -94.6203 261° West 425 489 34,000  Level Minneapolis Center
09:40AM 42.9519 -94.7808 262° West 426 490 34,000  Level Minneapolis Center
09:41AM 42.9350 -94.9392 262° West 425 489 34,000  Level Minneapolis Center
09:42AM 42.9181 -95.1000 262° West 427 491 34,000  Level Minneapolis Center
09:43AM 42.9000 -95.2592 261° West 426 490 34,000  Level Minneapolis Center
09:44AM 42.8792 -95.4508 262° West 426 490 34,000  Level Minneapolis Center
09:45AM 42.8611 -95.6103 261° West 426 490 34,000  Level Minneapolis Center
09:46AM 42.8436 -95.7703 262° West 427 491 34,000  Level Minneapolis Center
09:47AM 42.8244 -95.9286 261° West 425 489 34,000  Level Minneapolis Center
09:48AM 42.8058 -96.0878 261° West 426 490 34,000  Level Minneapolis Center
09:50AM 42.7869 -96.2486 261° West 429 494 34,000  Level Minneapolis Center
09:51AM 42.7689 -96.4064 261° West 425 489 34,000  Level Minneapolis Center
09:52AM 42.7492 -96.5656 260° West 425 489 34,000  Level Minneapolis Center
09:53AM 42.7261 -96.7533 261° West 421 484 34,000  Level Minneapolis Center
09:54AM 42.7072 -96.9103 261° West 421 484 34,000  Level Minneapolis Center
09:55AM 42.6853 -97.0794 260° West 421 484 34,000  Level Minneapolis Center
09:56AM 42.6661 -97.2339 260° West 417 480 34,000  Level Minneapolis Center
09:57AM 42.6458 -97.3894 260° West 418 481 34,000  Level Minneapolis Center
09:58AM 42.6253 -97.5450 260° West 420 483 34,000  Level Minneapolis Center
09:59AM 42.6011 -97.7314 260° West 419 482 34,000  Level Minneapolis Center
10:00AM 42.5783 -97.8975 260° West 414 476 34,000  Level Minneapolis Center
10:01AM 42.5575 -98.0517 260° West 416 479 34,000  Level Minneapolis Center
10:02AM 42.5378 -98.2072 260° West 418 481 34,000  Level Minneapolis Center
10:03AM 42.5161 -98.3647 259° West 424 488 34,000  Level Minneapolis Center
10:04AM 42.4903 -98.5483 259° West 417 480 34,000  Level Minneapolis Center
10:05AM 42.4631 -98.6989 256° West 414 476 34,000  Level Minneapolis Center
10:06AM 42.4022 -98.8397 240° Southwest 434 499 34,000  Level Minneapolis Center
10:07AM 42.3275 -99.0075 239° Southwest 434 499 34,000  Level Minneapolis Center
10:08AM 42.2653 -99.1469 239° Southwest 435 501 34,000  Level Minneapolis Center
10:09AM 42.2006 -99.2867 238° Southwest 438 504 34,000  Level Minneapolis Center
10:10AM 42.1372 -99.4275 239° Southwest 440 506 34,000  Level Minneapolis Center
10:11AM 42.1114 -99.4839 238° Southwest 439 505 34,000  Level Denver Center
10:12AM 42.0483 -99.6231 239° Southwest 436 502 34,000  Level Denver Center
10:13AM 41.9794 -99.7697 238° Southwest 434 499 34,000  Level Denver Center
10:14AM 41.9192 -99.9039 239° Southwest 438 504 34,000  Level Denver Center
10:15AM 41.8467 -100.0581 238° Southwest 438 504 34,000  Level Denver Center
10:16AM 41.7850 -100.1903 238° Southwest 439 505 34,000  Level Denver Center
10:17AM 41.7122 -100.3442 238° Southwest 440 506 34,000  Level Denver Center
10:18AM 41.6489 -100.4772 238° Southwest 442 509 34,000  Level Denver Center
10:19AM 41.5767 -100.6317 238° Southwest 442 509 34,000  Level Denver Center
10:20AM 41.5183 -100.7661 240° Southwest 440 506 34,000  Level Denver Center
10:21AM 41.4689 -100.9297 248° West 430 495 34,000  Level Denver Center
10:22AM 41.4239 -101.0719 247° West 436 502 34,000  Level Denver Center
10:23AM 41.3817 -101.2131 248° West 432 497 34,000  Level Denver Center
10:24AM 41.3336 -101.3756 249° West 426 490 34,000  Level Denver Center
10:25AM 41.2900 -101.5164 248° West 431 496 34,000  Level Denver Center
10:26AM 41.2386 -101.6800 247° West 431 496 34,000  Level Denver Center
10:27AM 41.1944 -101.8217 248° West 435 501 34,000  Level Denver Center
10:28AM 41.1431 -101.9850 247° West 431 496 34,000  Level Denver Center
10:29AM 41.0994 -102.1256 248° West 432 497 34,000  Level Denver Center
10:30AM 41.0481 -102.2892 247° West 432 497 34,000  Level Denver Center
10:31AM 41.0042 -102.4289 247° West 431 496 34,000  Level Denver Center
10:33AM 40.9522 -102.5931 247° West 434 499 34,000  Level Denver Center
10:34AM 40.9072 -102.7339 247° West 435 501 34,000  Level Denver Center
10:35AM 40.8619 -102.8742 247° West 436 502 34,000  Level Denver Center
10:36AM 40.8083 -103.0431 247° West 438 504 34,000 -480 Level Denver Center
10:37AM 40.7606 -103.1917 247° West 436 502 33,100 -1,560 Descending Denver Center
10:38AM 40.7106 -103.3392 246° West 437 503 30,800 -2,280 Descending Denver Center
10:39AM 40.6622 -103.4858 247° West 434 499 28,500 -2,220 Descending Denver Center
10:40AM 40.6178 -103.6219 247° West 404 465 26,300 -2,100 Descending Denver Center
10:41AM 40.5550 -103.7375 234° Southwest 388 447 24,200 -2,160 Descending Denver Center
10:42AM 40.4689 -103.8522 225° Southwest 373 429 21,900 -2,040 Descending Denver Center
10:43AM 40.3997 -103.9489 227° Southwest 354 407 20,100 -1,740 Descending Denver Center
10:44AM 40.3569 -104.0489 241° Southwest 318 366 18,400 -1,500 Descending Denver Center
10:45AM 40.3550 -104.1525 269° West 283 326 17,000 -1,380 Descending Denver Center
10:46AM 40.3544 -104.2603 270° West 275 316 15,600 -1,320 Descending Denver Center
10:47AM 40.3528 -104.3497 269° West 251 289 14,300 -1,320 Descending Denver Center
10:48AM 40.3389 -104.4464 259° West 252 290 12,900 -1,200 Descending Denver Center
10:49AM 40.3219 -104.5311 255° West 243 280 11,900 -1,140 Descending Denver Center
10:50AM 40.2583 -104.5783 210° Southwest 248 285 10,600 -1,320 Descending Denver Center
10:51AM 40.1972 -104.6200 208° Southwest 249 287 9,200 -1,260 Descending Denver Center
10:52AM 40.1381 -104.6622 209° Southwest 244 281 8,000 -600 Descending Denver Center
10:53AM 40.0761 -104.6858 196° South 217 250 8,000 -240 Level Denver Center
10:54AM 40.0144 -104.6856 180° South 221 254 7,600 -780 Descending Denver Center
10:55AM 39.9575 -104.6861 180° South 189 217 6,500 -900 Descending Denver Center
10:56AM 39.9186 -104.6864 180° South 143 165 5,800 -540 Descending Denver Center
10:57AM 39.8822 -104.6869 181° South 132 152 5,400 -420 Descending Denver Center
10:59AM 39.8617 -104.6732 190° South  Level Estimated
11:06AM 39.8617 -104.6732 190° South  Level Estimated
11:07AM 39.8617 -104.6732 190° South  Level Estimated
11:08AM 39.8617 -104.6732 190° South  Level Estimated